Airport View

Enter AWOS ICAO identifier for current METAR.

ex. KFNL

KLGC 080835Z AUTO 00000KT 10SM OVC005 17/17 A2989 RMK AO2 T01730168

8 Apr 2020 08:59

Frequency: 126.325

Phone: 706-845-0677

Other Area AWOS: KPIM - KCCO - KAUO - KCSG

TAF KCSG 080520Z 0806/0906 VRB03KT P6SM VCSH SCT010 OVC070 FM080900 24006KT P6SM VCSH BKN007 OVC030 FM081500 29009KT P6SM VCSH BKN015 FM081800 28009KT P6SM VCSH SCT030 SCT150 BKN250 PROB30 0820/0902 5SM TSRA BKN030CB FM090200 27006KT P6SM SCT040 BKN250